Wednesday, October 22, 2014
01:44 UTC
  |  Log In   |  Register Free
Airport Search:

La Porte Municipal Airport
(T41)

La Porte Municipal Airport Diagram
No Airport Diagram Available

FAA data valid effective September 18, 2014 - November 13, 2014 (unless otherwise noted).

 
 
 
 
 
 
 
 
 
 
 
 
 
 

Current Aviation Weather for La Porte Municipal Airport (T41)

METAR data is unavailable for T41. The nearest METAR location is at KEFD (6.2 nm SW from T41).

The most recent METAR observation for KEFD was updated at: 0108
METAR Summary (Translated METAR)
KEFD
220050Z 00000KT 10SM FEW250 23/14 A3001
(6.2 nm SW from T41)
KHOU
220053Z 00000KT 10SM FEW250 22/14 A3000 RMK AO2 SLP163 T02220144
(11.3 nm SW from T41)
TAF Summary (Translated TAF)
KEFD
2120/2302 06009KT 9999 FEW250 QNH2996INS TX27/2120Z TN16/2211Z
KHOU
(6.7 nm NW from KEFD)
212035Z 2121/2218 10009KT P6SM SKC
  Airport Weather Conditions for T41

Current weather conditions are
not available for T41


The nearest NOAA weather station
is at EFD, (6.2 nm SW from T41)
  
 Current Weather at EFD
73° F
A Few Clouds
North winds at 0.0 mph
EFD NOAA Radar

Pressure: 30.01 in
Humidity: 57%
Wind: Calm
Dew Point: 57.2°F
Visibility: 10.00 mi


Airport Weather Forecast for T41

Translated METAR and TAF for KEFD
Translated METAR for KEFD (0139 UTC 22 October 2014)
found at http://aviationweather.gov/adds/metars/
 
METAR text: KEFD 220050Z 00000KT 10SM FEW250 23/14 A3001
Conditions at: KEFD (HOUSTON/ELLINGTO, TX, US) observed 0050 UTC 22 October 2014
Temperature: 23.0°C (73°F)
Dewpoint: 14.0°C (57°F) [RH = 57%]
Pressure (altimeter): 30.01 inches Hg (1016.3 mb)
Winds: calm
Visibility: 10 or more miles (16+ km)
Ceiling: at least 12,000 feet AGL
Clouds: few clouds at 25000 feet AGL
Weather: no significant weather observed at this time
Translated TAF for KEFD
Forecast for: KEFD (HOUSTON/ELLINGTO, TX, US)
TAF Text: TAF KEFD 2120/2302 06009KT 9999 FEW250 QNH2996INS TX27/2120Z TN16/2211Z
Forecast period: 2000 UTC 21 October 2014 to 0200 UTC 23 October 2014
Forecast type: FROM: standard forecast or significant change
Winds: from the ENE (60 degrees) at 10 MPH (9 knots; 4.7 m/s)
Visibility: 6 or more miles (10+ km)
Clouds: few clouds at 25000 feet AGL
Weather: no significant weather forecast for this period

Find All Airport Services Find A Hotel Find A Rental Car Find A Golf Course Find A Restaurant $100 Hamburger



FBO's on the Field
FBO Company Facility Photos Services Transportation Aviation Fuel Prices: Prices include tax
Catering Weather Repair Courtesy Rental Type 100LL JetA JetA+ MOGAS 8087
 
Harvey & Rihn Aviation

This FBO has not yet been rated
FS:Independent
Last Updated: Oct-06
Login to update fuel prices
SS:
Contact Harvey & Rihn AviationMore FBO Information
 
Tri-Star Aviation

This FBO has not yet been rated
FS:Avfuel
Last Updated: Oct-10
Login to update fuel prices
SS:
Contact Tri-Star AviationMore FBO Information
 
Add another FBO Facility Photos Catering Weather Repair Courtesy Rental Type 100LL JetA JetA+ MOGAS 8087
Services Transportation Aviation Fuel Prices: Prices include tax


model-print
model-print
model-print
model-print